Nowlin, South Dakota
Current Conditions -  °F | °C
As of 12:55 AM on Thursday 23 Oct 2014 (Local Time) from KPHP Reporting Station
Clear Clear  
Wind Chill: 28°   Ceiling: Unl
Heat Index: 33°   Visibility: 10mi
Dew Point: 29°   Wind: 6mph
Humidity: 85%   Direction: 290°WNW
Pressure: 30.01"   Gusts: NA
Location:  44.3169°N, 101.368°W
Report Text: KPHP 230655Z AUTO 29005KT 10SM CLR 01/M02 A3001 RMK AO2 SLP163 T00061017 402000006
Loading
Personal Weather Stations






























Interactive Weather Map
Tropical Storm Tracking
New forecast layout! Learn more

10-Day Weather Forecast

Advertisements
Track Severe Weather on mobile